Terminal Aerodrome Forecast
Issued by NWS

Home | Current Version | Previous Version | Text Only | Print | Product List | Glossary On
Versions: 1 2 3 4 5 6 7 8 9 10 11 12 13 14 15 16 17 18 19 20 21 22 23 24 25 26 27 28 29 30 31 32 33
997
FTUS45 KLKN 301720
TAFTPH
TAF
KTPH 301720Z 3018/0118 01022G34KT P6SM VCSH SCT040 BKN060
     FM302100 01026G36KT P6SM VCTS SCT035 BKN060CB
     FM010300 35014G24KT P6SM SCT060 BKN140
     FM010700 35013KT P6SM SCT060 SCT140
     FM011600 35014G24KT P6SM SCT050 BKN090=

USA.gov is the U.S. government's official web portal to all federal, state and local government web resources and services.